Time;durP1;ratioP1;P1;durP2;ratioP2;P2;SDS_P1;SDS_P2;PMS_P1;PMS_P2;Temp;Humidity;BMP_temperature;BMP_pressure;BME280_temperature;BME280_humidity;BME280_pressure;Samples;Min_cycle;Max_cycle;Signal;HPM_P1;HPM_P2
2021/03/07 00:00:31;;;;;;;11.35;3.10;;;1.90;99.90;;;;;;5074510;28;20044;-69
2021/03/07 00:02:57;;;;;;;8.23;3.33;;;1.90;99.90;;;;;;5069224;28;20424;-69
2021/03/07 00:05:22;;;;;;;9.43;3.05;;;1.90;99.90;;;;;;5072053;28;20035;-69
2021/03/07 00:07:49;;;;;;;9.07;3.42;;;1.90;99.90;;;;;;5068995;28;20032;-69
2021/03/07 00:10:17;;;;;;;7.90;3.75;;;1.90;99.90;;;;;;5070868;28;20182;-69
2021/03/07 00:12:44;;;;;;;16.48;4.72;;;1.90;99.90;;;;;;5072150;28;20039;-69
2021/03/07 00:15:13;;;;;;;8.17;3.33;;;1.90;99.90;;;;;;5072863;28;20074;-69
2021/03/07 00:17:39;;;;;;;9.00;3.72;;;1.80;99.90;;;;;;5069722;28;20039;-68
2021/03/07 00:20:07;;;;;;;7.90;3.70;;;1.80;99.90;;;;;;5071189;28;20040;-68
2021/03/07 00:22:33;;;;;;;5.90;3.33;;;1.80;99.90;;;;;;5072457;28;20044;-68
2021/03/07 00:24:58;;;;;;;9.50;3.75;;;1.80;99.90;;;;;;5072417;28;20461;-68
2021/03/07 00:27:24;;;;;;;12.30;3.65;;;1.80;99.90;;;;;;5071397;28;20037;-67
2021/03/07 00:29:50;;;;;;;6.97;4.18;;;1.70;99.90;;;;;;5071827;28;20035;-68
2021/03/07 00:32:15;;;;;;;6.03;3.40;;;1.70;99.90;;;;;;5070576;28;20543;-67
2021/03/07 00:34:41;;;;;;;6.78;3.15;;;1.70;99.90;;;;;;5072916;28;20028;-68
2021/03/07 00:37:07;;;;;;;11.57;3.22;;;1.70;99.90;;;;;;5071378;28;20056;-68
2021/03/07 00:39:33;;;;;;;6.80;3.47;;;1.60;99.90;;;;;;5072695;28;20119;-67
2021/03/07 00:41:59;;;;;;;7.78;3.17;;;1.60;99.90;;;;;;5072092;28;20029;-68
2021/03/07 00:44:25;;;;;;;10.48;3.30;;;1.60;99.90;;;;;;5071799;28;20468;-67
2021/03/07 00:46:52;;;;;;;6.97;3.60;;;1.60;99.90;;;;;;5070178;28;20032;-69
2021/03/07 00:49:22;;;;;;;12.40;3.47;;;1.60;99.90;;;;;;5071446;28;20039;-68
2021/03/07 00:51:48;;;;;;;7.95;3.58;;;1.60;99.90;;;;;;5070378;28;20098;-69
2021/03/07 00:54:14;;;;;;;8.88;2.85;;;1.50;99.90;;;;;;5072030;28;20055;-69
2021/03/07 00:56:40;;;;;;;8.52;3.50;;;1.50;99.90;;;;;;5071658;28;20020;-68
2021/03/07 00:59:06;;;;;;;8.60;4.35;;;1.60;99.90;;;;;;5071987;28;20035;-68
2021/03/07 01:01:32;;;;;;;12.40;4.35;;;1.60;99.90;;;;;;5071706;28;20024;-69
2021/03/07 01:03:58;;;;;;;6.75;4.40;;;1.50;99.90;;;;;;5071479;28;20036;-68
2021/03/07 01:06:23;;;;;;;7.68;4.25;;;1.50;99.90;;;;;;5071673;28;20017;-69
2021/03/07 01:08:49;;;;;;;9.77;4.07;;;1.50;99.90;;;;;;5071462;28;20389;-69
2021/03/07 01:11:15;;;;;;;6.85;4.07;;;1.50;99.90;;;;;;5070381;28;20078;-68
2021/03/07 01:13:41;;;;;;;8.50;4.35;;;1.40;99.90;;;;;;5071705;28;20025;-68
2021/03/07 01:16:06;;;;;;;7.03;4.22;;;1.40;99.90;;;;;;5075764;28;20046;-69
2021/03/07 01:18:32;;;;;;;6.22;3.50;;;1.40;99.90;;;;;;5075566;28;20025;-69
2021/03/07 01:20:58;;;;;;;8.98;3.78;;;1.40;99.90;;;;;;5075165;28;20028;-68
2021/03/07 01:23:24;;;;;;;10.55;4.07;;;1.40;99.90;;;;;;5074134;28;20028;-67
2021/03/07 01:25:49;;;;;;;7.13;3.95;;;1.40;99.90;;;;;;5075774;28;20035;-69
2021/03/07 01:28:15;;;;;;;9.15;4.30;;;1.40;99.90;;;;;;5075218;28;20025;-69
2021/03/07 01:30:43;;;;;;;6.97;4.30;;;1.40;99.90;;;;;;5074646;28;20029;-69
2021/03/07 01:33:08;;;;;;;9.13;4.00;;;1.30;99.90;;;;;;5074691;28;20062;-68
2021/03/07 01:35:35;;;;;;;7.35;4.18;;;1.40;99.90;;;;;;5074508;28;20480;-69
2021/03/07 01:38:01;;;;;;;9.93;4.15;;;1.30;99.90;;;;;;5075416;28;20040;-67
2021/03/07 01:40:34;;;;;;;9.45;4.70;;;1.30;99.90;;;;;;5073354;28;20507;-69
2021/03/07 01:43:01;;;;;;;7.75;3.85;;;1.30;99.90;;;;;;5074650;28;20031;-68
2021/03/07 01:45:29;;;;;;;8.18;4.20;;;1.30;99.90;;;;;;5074674;28;20035;-67
2021/03/07 01:47:58;;;;;;;7.88;3.85;;;1.30;99.90;;;;;;5073162;28;20078;-67
2021/03/07 01:50:30;;;;;;;8.70;4.15;;;1.30;99.90;;;;;;5072428;28;20021;-68
2021/03/07 01:52:56;;;;;;;10.60;4.90;;;1.30;99.90;;;;;;5074835;28;20033;-68
2021/03/07 01:55:24;;;;;;;8.65;4.63;;;1.20;99.90;;;;;;5075004;28;20032;-67
2021/03/07 01:58:02;;;;;;;8.35;4.15;;;1.30;99.90;;;;;;5073560;28;20029;-68
2021/03/07 02:00:28;;;;;;;9.65;4.93;;;1.30;99.90;;;;;;5074875;28;20028;-68
2021/03/07 02:02:54;;;;;;;10.65;3.92;;;1.20;99.90;;;;;;5074031;28;20037;-68
2021/03/07 02:05:22;;;;;;;11.82;4.65;;;1.20;99.90;;;;;;5074272;28;20473;-68
2021/03/07 02:07:49;;;;;;;10.20;4.75;;;1.20;99.90;;;;;;5072732;28;20021;-68
2021/03/07 02:10:22;;;;;;;11.38;5.00;;;1.20;99.90;;;;;;5078808;28;20040;-67
2021/03/07 02:12:50;;;;;;;12.98;5.22;;;1.10;99.90;;;;;;5073563;28;20029;-68
2021/03/07 02:15:17;;;;;;;7.40;4.47;;;1.20;99.90;;;;;;5070186;28;20380;-68
2021/03/07 02:17:43;;;;;;;8.70;4.82;;;1.20;99.90;;;;;;5072996;28;20036;-68
2021/03/07 02:20:10;;;;;;;7.68;4.90;;;1.20;99.90;;;;;;5073499;28;20032;-69
2021/03/07 02:22:41;;;;;;;10.27;5.50;;;1.20;99.90;;;;;;5055204;28;20125;-67
2021/03/07 02:25:11;;;;;;;13.20;5.57;;;1.20;99.90;;;;;;5071059;28;20408;-68
2021/03/07 02:27:36;;;;;;;12.63;5.18;;;1.10;99.90;;;;;;5073443;28;20025;-67
2021/03/07 02:30:13;;;;;;;13.25;4.93;;;1.10;99.90;;;;;;5073307;28;20023;-68
2021/03/07 02:32:45;;;;;;;7.50;4.25;;;1.10;99.90;;;;;;5073091;28;20568;-68
2021/03/07 02:35:22;;;;;;;8.70;4.47;;;1.00;99.90;;;;;;5073367;28;20485;-68
2021/03/07 02:37:54;;;;;;;9.40;4.15;;;1.10;99.90;;;;;;5071690;28;20028;-68
2021/03/07 02:40:24;;;;;;;7.72;4.70;;;1.00;99.90;;;;;;5073253;28;20028;-68
2021/03/07 02:42:50;;;;;;;10.25;4.75;;;1.00;99.90;;;;;;5072788;28;20103;-68
2021/03/07 02:45:21;;;;;;;11.07;4.32;;;1.00;99.90;;;;;;5073593;28;20070;-69
2021/03/07 02:47:51;;;;;;;9.73;4.32;;;1.10;99.90;;;;;;5073364;28;20028;-69
2021/03/07 02:50:21;;;;;;;9.23;4.70;;;1.00;99.90;;;;;;5073426;28;20358;-68
2021/03/07 02:52:52;;;;;;;10.52;5.13;;;1.10;99.90;;;;;;5072154;28;20025;-68
2021/03/07 02:55:19;;;;;;;10.73;5.03;;;1.00;99.90;;;;;;5071871;28;20031;-69
2021/03/07 02:57:48;;;;;;;12.03;4.40;;;1.00;99.90;;;;;;5072997;28;20020;-68
2021/03/07 03:00:14;;;;;;;10.00;4.65;;;1.00;99.90;;;;;;5072880;28;20048;-69
2021/03/07 03:02:41;;;;;;;11.63;4.20;;;0.90;99.90;;;;;;5072994;28;20067;-69
2021/03/07 03:05:09;;;;;;;12.45;4.75;;;1.00;99.90;;;;;;5071563;28;20388;-68
2021/03/07 03:07:36;;;;;;;8.10;4.53;;;1.00;99.90;;;;;;5073223;28;20020;-67
2021/03/07 03:10:05;;;;;;;7.90;4.43;;;1.00;99.90;;;;;;5072773;28;20892;-68
2021/03/07 03:12:33;;;;;;;9.35;4.30;;;1.10;99.90;;;;;;5072642;28;20025;-68
2021/03/07 03:14:59;;;;;;;;;;;1.10;99.90;;;;;;5071778;28;20024;-66
2021/03/07 03:17:26;;;;;;;10.13;4.82;;;1.00;99.90;;;;;;5073092;28;19916;-67
2021/03/07 03:19:55;;;;;;;6.93;5.00;;;1.00;99.90;;;;;;5072937;28;20028;-68
2021/03/07 03:22:21;;;;;;;6.30;4.22;;;0.90;99.90;;;;;;5072138;28;20370;-68
2021/03/07 03:24:47;;;;;;;11.18;4.68;;;0.90;99.90;;;;;;5072762;28;20116;-68
2021/03/07 03:27:14;;;;;;;13.02;5.43;;;0.90;99.90;;;;;;5070428;28;20063;-67
2021/03/07 03:29:40;;;;;;;6.30;4.63;;;0.90;99.90;;;;;;5071899;28;20040;-71
2021/03/07 03:32:06;;;;;;;10.65;4.80;;;0.80;99.90;;;;;;5073348;28;20021;-68
2021/03/07 03:34:33;;;;;;;10.52;5.07;;;0.90;99.90;;;;;;5068849;28;20017;-69
2021/03/07 03:36:59;;;;;;;6.55;4.22;;;0.90;99.90;;;;;;5071525;28;20082;-68
2021/03/07 03:39:27;;;;;;;10.10;4.90;;;0.90;99.90;;;;;;5073199;28;20024;-68
2021/03/07 03:42:01;;;;;;;11.80;5.15;;;0.90;99.90;;;;;;5071253;28;20365;-68
2021/03/07 03:44:37;;;;;;;12.85;5.15;;;1.00;99.90;;;;;;5072367;28;20028;-67
2021/03/07 03:47:07;;;;;;;9.65;5.20;;;1.00;99.90;;;;;;5072487;28;20031;-67
2021/03/07 03:49:59;;;;;;;10.65;5.63;;;1.00;99.90;;;;;;5064689;28;20640;-68
2021/03/07 03:52:26;;;;;;;7.38;5.18;;;1.10;99.90;;;;;;5069751;28;20495;-68
2021/03/07 03:55:08;;;;;;;9.77;5.45;;;1.10;99.90;;;;;;5070368;28;20013;-67
2021/03/07 03:57:35;;;;;;;14.93;6.05;;;1.10;99.90;;;;;;5071235;28;20045;-68
2021/03/07 04:00:07;;;;;;;18.10;6.78;;;1.10;99.90;;;;;;5071805;28;20389;-68
2021/03/07 04:02:34;;;;;;;11.63;6.15;;;1.10;99.90;;;;;;5071553;28;20297;-67
2021/03/07 04:05:04;;;;;;;10.88;6.15;;;1.10;99.90;;;;;;5072034;28;20071;-69
2021/03/07 04:07:31;;;;;;;14.20;5.47;;;1.20;99.90;;;;;;5069883;28;20437;-67
2021/03/07 04:09:57;;;;;;;10.10;5.30;;;1.20;99.90;;;;;;5071806;28;20029;-68
2021/03/07 04:12:24;;;;;;;8.57;5.50;;;1.20;99.90;;;;;;5067271;28;20081;-67
2021/03/07 04:14:52;;;;;;;11.65;6.30;;;1.30;99.90;;;;;;5070121;28;20020;-68
2021/03/07 04:17:26;;;;;;;6.18;4.55;;;1.40;99.90;;;;;;5071056;28;20029;-66
2021/03/07 04:19:53;;;;;;;7.97;5.43;;;1.40;99.90;;;;;;5068074;28;20125;-68
2021/03/07 04:22:20;;;;;;;8.25;5.03;;;1.50;99.90;;;;;;5071401;28;20173;-68
2021/03/07 04:25:04;;;;;;;12.13;5.15;;;1.50;99.90;;;;;;5072034;28;20106;-68
2021/03/07 04:27:31;;;;;;;7.60;5.32;;;1.60;99.90;;;;;;5071936;28;20025;-67
2021/03/07 04:29:57;;;;;;;9.30;5.00;;;1.50;99.90;;;;;;5071453;28;20020;-68
2021/03/07 04:32:23;;;;;;;7.05;4.78;;;1.60;99.90;;;;;;5070880;28;20392;-68
2021/03/07 04:34:49;;;;;;;12.52;5.55;;;1.60;99.90;;;;;;5072153;28;20024;-69
2021/03/07 04:37:15;;;;;;;10.45;5.97;;;1.60;99.90;;;;;;5067192;28;20024;-69
2021/03/07 04:39:41;;;;;;;9.23;5.65;;;1.70;99.90;;;;;;5071865;28;20040;-67
2021/03/07 04:42:07;;;;;;;9.50;5.30;;;1.80;99.90;;;;;;5070743;28;20025;-67
2021/03/07 04:44:33;;;;;;;9.63;5.05;;;1.90;99.90;;;;;;5069094;28;20109;-69
2021/03/07 04:46:59;;;;;;;13.00;5.75;;;1.90;99.90;;;;;;5068661;28;20012;-69
2021/03/07 04:49:25;;;;;;;10.00;5.05;;;1.90;99.90;;;;;;5072536;28;20021;-66
2021/03/07 04:51:51;;;;;;;8.13;5.25;;;2.00;99.90;;;;;;5074103;28;20447;-68
2021/03/07 04:54:17;;;;;;;7.95;4.55;;;2.00;99.90;;;;;;5076050;28;20028;-68
2021/03/07 04:56:42;;;;;;;14.32;6.18;;;2.00;99.90;;;;;;5075902;28;20028;-67
2021/03/07 04:59:09;;;;;;;9.75;5.00;;;2.00;99.90;;;;;;5075909;28;20422;-67
2021/03/07 05:01:36;;;;;;;11.20;5.68;;;2.10;99.90;;;;;;5074368;28;20468;-68
2021/03/07 05:04:02;;;;;;;11.23;6.70;;;2.10;99.90;;;;;;5073966;28;20425;-68
2021/03/07 05:06:28;;;;;;;13.02;6.47;;;2.20;99.90;;;;;;5074057;28;20020;-68
2021/03/07 05:08:54;;;;;;;8.02;5.53;;;2.20;99.90;;;;;;5075279;28;20511;-68
2021/03/07 05:11:21;;;;;;;14.38;6.30;;;2.20;99.90;;;;;;5074836;28;20013;-69
2021/03/07 05:13:48;;;;;;;13.02;4.35;;;2.30;99.90;;;;;;5073887;28;20052;-69
2021/03/07 05:16:16;;;;;;;16.83;6.05;;;2.30;99.90;;;;;;5073574;28;20020;-68
2021/03/07 05:18:45;;;;;;;11.77;6.45;;;2.30;99.90;;;;;;5075145;28;20477;-69
2021/03/07 05:21:11;;;;;;;8.10;5.00;;;2.40;99.90;;;;;;5073531;28;20027;-67
2021/03/07 05:23:37;;;;;;;16.30;6.30;;;2.40;99.90;;;;;;5073910;28;20033;-68
2021/03/07 05:26:03;;;;;;;13.50;5.82;;;2.40;99.90;;;;;;5074943;28;20373;-69
2021/03/07 05:28:29;;;;;;;11.43;5.72;;;2.50;99.90;;;;;;5071378;28;20026;-69
2021/03/07 05:30:55;;;;;;;11.02;6.03;;;2.50;99.90;;;;;;5073611;28;20017;-66
2021/03/07 05:33:20;;;;;;;11.80;6.40;;;2.50;99.90;;;;;;5074195;28;20382;-67
2021/03/07 05:35:47;;;;;;;10.90;5.80;;;2.60;99.90;;;;;;5075500;28;20115;-67
2021/03/07 05:38:13;;;;;;;9.27;5.72;;;2.60;99.90;;;;;;5073663;28;20028;-68
2021/03/07 05:40:39;;;;;;;13.52;5.82;;;2.60;99.90;;;;;;5075627;28;20077;-66
2021/03/07 05:43:05;;;;;;;16.55;6.18;;;2.60;99.90;;;;;;5075151;28;20071;-67
2021/03/07 05:45:30;;;;;;;9.65;5.55;;;2.60;99.90;;;;;;5075440;28;20082;-67
2021/03/07 05:47:56;;;;;;;12.30;6.10;;;2.60;99.90;;;;;;5075082;28;20025;-68
2021/03/07 05:50:23;;;;;;;12.25;6.20;;;2.60;99.90;;;;;;5073534;28;20021;-68
2021/03/07 05:52:52;;;;;;;9.90;5.68;;;2.70;99.90;;;;;;5074436;28;20024;-67
2021/03/07 05:55:18;;;;;;;8.02;4.85;;;2.70;99.90;;;;;;5075232;28;20489;-67
2021/03/07 05:57:46;;;;;;;14.50;6.28;;;2.70;99.90;;;;;;5073888;28;20033;-68
2021/03/07 06:00:12;;;;;;;9.45;5.88;;;2.80;99.90;;;;;;5075185;28;20028;-68
2021/03/07 06:02:38;;;;;;;14.70;5.82;;;2.80;99.90;;;;;;5075009;28;20027;-70
2021/03/07 06:05:04;;;;;;;8.18;5.80;;;2.70;99.90;;;;;;5074473;28;20017;-69
2021/03/07 06:07:30;;;;;;;7.40;5.60;;;2.70;99.90;;;;;;5072102;28;20158;-70
2021/03/07 06:10:17;;;;;;;8.93;6.18;;;2.80;99.90;;;;;;5072983;28;20063;-68
2021/03/07 06:12:56;;;;;;;16.35;7.18;;;2.80;99.90;;;;;;5074573;28;20044;-69
2021/03/07 06:15:22;;;;;;;14.82;6.10;;;2.90;99.90;;;;;;5073949;28;20035;-69
2021/03/07 06:17:47;;;;;;;8.60;6.00;;;2.90;99.90;;;;;;5073302;28;20028;-69
2021/03/07 06:20:18;;;;;;;9.95;5.43;;;2.90;99.90;;;;;;5074779;28;20078;-69
2021/03/07 06:22:59;;;;;;;15.73;6.40;;;3.00;99.90;;;;;;5073754;28;20388;-69
2021/03/07 06:25:24;;;;;;;15.77;5.80;;;3.00;99.90;;;;;;5080369;28;20443;-69
2021/03/07 06:27:51;;;;;;;12.82;6.03;;;3.00;99.90;;;;;;5073268;28;20100;-69
2021/03/07 06:30:25;;;;;;;13.23;6.07;;;3.10;99.90;;;;;;5072657;28;20094;-68
2021/03/07 06:32:55;;;;;;;9.85;6.15;;;3.10;99.90;;;;;;5074110;28;20028;-68
2021/03/07 06:35:24;;;;;;;17.40;7.43;;;3.20;99.90;;;;;;5074004;28;20423;-68
2021/03/07 06:37:57;;;;;;;13.05;6.18;;;3.10;99.90;;;;;;5071699;28;20141;-67
2021/03/07 06:40:27;;;;;;;14.00;7.07;;;3.10;99.90;;;;;;5073416;28;20036;-68
2021/03/07 06:42:54;;;;;;;8.13;5.97;;;3.20;99.90;;;;;;5073139;28;20059;-68
2021/03/07 06:45:20;;;;;;;12.68;5.75;;;3.20;99.90;;;;;;5074410;28;20029;-68
2021/03/07 06:47:57;;;;;;;8.80;5.53;;;3.20;99.90;;;;;;5074302;28;20024;-69
2021/03/07 06:50:23;;;;;;;13.75;6.40;;;3.30;99.90;;;;;;5073437;28;20033;-69
2021/03/07 06:52:54;;;;;;;16.90;6.57;;;3.30;99.90;;;;;;5072513;28;20043;-68
2021/03/07 06:55:23;;;;;;;11.18;6.05;;;3.30;99.90;;;;;;5069133;28;20393;-68
2021/03/07 06:57:49;;;;;;;14.70;6.55;;;3.40;99.90;;;;;;5072804;28;20035;-68
2021/03/07 07:00:15;;;;;;;9.32;5.82;;;3.40;99.90;;;;;;5073802;28;20431;-68
2021/03/07 07:03:05;;;;;;;10.27;6.28;;;3.50;99.90;;;;;;5073443;28;20100;-68
2021/03/07 07:05:57;;;;;;;11.25;6.03;;;3.50;99.90;;;;;;5072449;28;20033;-69
2021/03/07 07:08:45;;;;;;;11.23;6.90;;;3.50;99.90;;;;;;5061929;28;20045;-67
2021/03/07 07:11:11;;;;;;;13.30;6.88;;;3.60;99.90;;;;;;5071406;28;20048;-67
2021/03/07 07:13:48;;;;;;;10.63;6.45;;;3.60;99.90;;;;;;5070472;28;20466;-68
2021/03/07 07:16:15;;;;;;;12.30;7.13;;;3.60;99.90;;;;;;5062643;28;20096;-68
2021/03/07 07:18:43;;;;;;;14.48;6.88;;;3.70;99.90;;;;;;5072728;28;20034;-67
2021/03/07 07:21:17;;;;;;;15.32;6.72;;;3.70;99.90;;;;;;5073360;28;20020;-68
2021/03/07 07:23:43;;;;;;;15.13;7.13;;;3.80;99.90;;;;;;5072815;28;20504;-68
2021/03/07 07:26:09;;;;;;;12.85;6.68;;;3.90;99.90;;;;;;5073025;28;20020;-68
2021/03/07 07:28:36;;;;;;;12.88;7.38;;;3.90;99.90;;;;;;5072316;28;20019;-68
2021/03/07 07:31:07;;;;;;;14.32;7.30;;;4.00;99.90;;;;;;5068398;28;20035;-68
2021/03/07 07:33:53;;;;;;;20.92;8.48;;;4.00;99.90;;;;;;5073965;28;20434;-68
2021/03/07 07:36:45;;;;;;;16.63;7.00;;;4.10;99.90;;;;;;5067803;28;20033;-68
2021/03/07 07:39:12;;;;;;;15.10;8.30;;;4.10;99.90;;;;;;5069170;28;20037;-68
2021/03/07 07:41:40;;;;;;;10.17;6.07;;;4.20;99.90;;;;;;5067152;28;20721;-68
2021/03/07 07:44:12;;;;;;;;;;;4.30;99.90;;;;;;5068980;28;20287;-69
2021/03/07 07:46:56;;;;;;;11.93;7.28;;;4.30;99.90;;;;;;5067139;28;19908;-68
2021/03/07 07:49:37;;;;;;;17.05;8.00;;;4.40;99.90;;;;;;5071955;28;20401;-69
2021/03/07 07:52:30;;;;;;;13.85;7.43;;;4.40;99.90;;;;;;5072575;28;20035;-68
2021/03/07 07:55:01;;;;;;;13.73;8.63;;;4.50;99.90;;;;;;5072381;28;20024;-68
2021/03/07 07:57:36;;;;;;;14.35;8.60;;;4.60;99.90;;;;;;5067872;28;20083;-67
2021/03/07 08:00:42;;;;;;;19.27;9.05;;;4.70;99.90;;;;;;5066211;28;20043;-67
2021/03/07 08:03:08;;;;;;;16.90;10.10;;;4.70;99.90;;;;;;5064116;28;20105;-68
2021/03/07 08:05:36;;;;;;;20.70;9.85;;;4.80;99.90;;;;;;5071666;28;20013;-68
2021/03/07 08:08:06;;;;;;;20.63;11.15;;;4.90;99.90;;;;;;5072451;28;20090;-68
2021/03/07 08:10:47;;;;;;;17.20;9.43;;;5.00;99.90;;;;;;5071173;28;20040;-68
2021/03/07 08:13:15;;;;;;;19.30;10.63;;;5.10;99.90;;;;;;5072130;28;20025;-68
2021/03/07 08:15:42;;;;;;;16.83;9.88;;;5.20;99.90;;;;;;5071738;28;20036;-67
2021/03/07 08:18:08;;;;;;;19.23;10.02;;;5.30;99.90;;;;;;5072289;28;20020;-69
2021/03/07 08:20:43;;;;;;;16.73;10.00;;;5.30;99.90;;;;;;5072623;28;20514;-68
2021/03/07 08:23:13;;;;;;;22.92;14.85;;;5.40;99.90;;;;;;5072194;28;20036;-68
2021/03/07 08:25:50;;;;;;;15.18;9.63;;;5.40;99.90;;;;;;5071732;28;20021;-69
2021/03/07 08:28:25;;;;;;;19.17;9.25;;;5.50;99.90;;;;;;5060519;28;20104;-71
2021/03/07 08:30:52;;;;;;;20.13;10.38;;;5.60;99.90;;;;;;5054242;28;20017;-68
2021/03/07 08:33:25;;;;;;;17.30;10.35;;;5.60;99.90;;;;;;5066264;28;20056;-69
2021/03/07 08:36:14;;;;;;;16.25;8.82;;;5.60;99.90;;;;;;5071742;28;20507;-68
2021/03/07 08:38:49;;;;;;;19.80;9.73;;;5.70;99.90;;;;;;5068934;28;20154;-68
2021/03/07 08:41:16;;;;;;;17.33;8.73;;;5.70;99.90;;;;;;5070821;28;20040;-69
2021/03/07 08:43:43;;;;;;;21.02;8.98;;;5.70;99.90;;;;;;5070075;28;20033;-68
2021/03/07 08:46:15;;;;;;;15.07;9.73;;;5.90;99.90;;;;;;5070112;28;20020;-69
2021/03/07 08:48:43;;;;;;;17.83;9.02;;;5.90;99.90;;;;;;5071029;28;20025;-67
2021/03/07 08:51:09;;;;;;;;;;;6.00;99.90;;;;;;5070765;28;20025;-68
2021/03/07 08:53:37;;;;;;;17.42;9.57;;;6.10;99.90;;;;;;5071280;28;20467;-68
2021/03/07 08:56:03;;;;;;;;;;;6.20;99.90;;;;;;5073122;28;20117;-67
2021/03/07 08:58:29;;;;;;;16.15;8.27;;;6.30;99.90;;;;;;5070806;28;19939;-67
2021/03/07 09:00:58;;;;;;;12.88;7.78;;;6.40;99.90;;;;;;5072499;28;20055;-69
2021/03/07 09:03:24;;;;;;;14.27;7.90;;;6.60;99.90;;;;;;5070102;28;20067;-68
2021/03/07 09:05:51;;;;;;;18.83;11.02;;;6.60;99.90;;;;;;5071474;28;20405;-67
2021/03/07 09:08:22;;;;;;;13.60;7.88;;;6.60;99.90;;;;;;5070844;28;20020;-68
2021/03/07 09:10:50;;;;;;;10.90;6.70;;;6.70;99.90;;;;;;5069603;28;20029;-69
2021/03/07 09:13:24;;;;;;;8.32;6.47;;;6.70;99.90;;;;;;5072613;28;20416;-69
2021/03/07 09:15:53;;;;;;;12.60;7.75;;;6.70;99.90;;;;;;5072013;28;20086;-68
2021/03/07 09:18:22;;;;;;;12.30;7.20;;;6.80;99.90;;;;;;5072310;28;20435;-68
2021/03/07 09:20:53;;;;;;;10.23;6.82;;;6.70;99.90;;;;;;5072459;28;20492;-68
2021/03/07 09:23:41;;;;;;;8.93;6.93;;;6.60;99.90;;;;;;5072135;28;20062;-68
2021/03/07 09:26:07;;;;;;;;;;;6.50;99.90;;;;;;5071190;28;20020;-68
2021/03/07 09:28:49;;;;;;;12.35;6.22;;;6.40;99.90;;;;;;5072267;28;19908;-68
2021/03/07 09:31:19;;;;;;;12.63;5.75;;;6.40;99.90;;;;;;5071158;28;20013;-70
2021/03/07 09:33:53;;;;;;;11.85;6.43;;;6.50;99.90;;;;;;5070003;28;20039;-68
2021/03/07 09:36:20;;;;;;;9.27;5.93;;;6.60;99.90;;;;;;5075029;28;20028;-69
2021/03/07 09:38:56;;;;;;;7.90;5.50;;;6.60;99.90;;;;;;5078673;28;20473;-68
2021/03/07 09:41:31;;;;;;;7.60;5.03;;;6.80;99.90;;;;;;5073302;28;20424;-68
2021/03/07 09:43:58;;;;;;;10.45;5.45;;;6.90;99.90;;;;;;5072109;28;20032;-69
2021/03/07 09:46:25;;;;;;;11.55;6.85;;;6.90;99.90;;;;;;5073862;28;20025;-68
2021/03/07 09:49:01;;;;;;;9.15;5.60;;;7.00;99.90;;;;;;5074121;28;20024;-69
2021/03/07 09:51:38;;;;;;;7.97;5.40;;;6.90;99.90;;;;;;5073678;28;20025;-68
2021/03/07 09:54:09;;;;;;;8.37;4.67;;;6.80;99.90;;;;;;5072573;28;20024;-69
2021/03/07 09:56:35;;;;;;;9.07;5.57;;;6.90;99.90;;;;;;5074707;28;20044;-69
2021/03/07 09:59:23;;;;;;;9.30;5.53;;;6.90;99.90;;;;;;5074210;28;20052;-67
2021/03/07 10:01:49;;;;;;;;;;;7.00;99.90;;;;;;5074879;28;20070;-68
2021/03/07 10:04:31;;;;;;;10.95;4.47;;;7.10;99.90;;;;;;5074724;28;20379;-67
2021/03/07 10:07:20;;;;;;;6.47;4.28;;;7.20;99.90;;;;;;5075067;28;20047;-68
2021/03/07 10:10:04;;;;;;;9.23;4.13;;;7.20;99.90;;;;;;5068682;28;20456;-68
2021/03/07 10:12:57;;;;;;;8.05;4.00;;;7.30;99.90;;;;;;5053583;28;20450;-69
2021/03/07 10:15:31;;;;;;;6.10;4.38;;;7.30;99.90;;;;;;5060197;28;20370;-69
2021/03/07 10:17:59;;;;;;;9.35;4.82;;;7.50;99.90;;;;;;5069120;28;20021;-69
2021/03/07 10:20:33;;;;;;;9.57;4.50;;;7.60;99.90;;;;;;5071038;28;20024;-69
2021/03/07 10:22:59;;;;;;;6.57;4.40;;;7.60;99.90;;;;;;5070960;28;20133;-69
2021/03/07 10:25:36;;;;;;;14.55;4.90;;;7.50;99.60;;;;;;5071770;28;20020;-70
2021/03/07 10:28:10;;;;;;;7.20;4.05;;;7.70;99.90;;;;;;5067957;28;20052;-69
2021/03/07 10:30:44;;;;;;;4.30;2.67;;;7.70;99.90;;;;;;5070866;28;20017;-68
2021/03/07 10:33:18;;;;;;;7.10;3.15;;;7.40;99.90;;;;;;5074951;28;20028;-67
2021/03/07 10:36:00;;;;;;;7.70;4.47;;;7.40;99.90;;;;;;5074919;28;20476;-68
2021/03/07 10:38:26;;;;;;;3.75;2.80;;;7.50;99.90;;;;;;5075094;28;20103;-69
2021/03/07 10:40:52;;;;;;;4.68;3.17;;;7.80;99.80;;;;;;5074779;28;20051;-68
2021/03/07 10:43:17;;;;;;;5.40;3.08;;;7.70;99.10;;;;;;5072788;28;20441;-69
2021/03/07 10:45:43;;;;;;;4.93;3.20;;;7.50;99.90;;;;;;5074282;28;20024;-68
2021/03/07 10:48:10;;;;;;;4.20;3.15;;;7.60;99.40;;;;;;5074274;28;20385;-68
2021/03/07 10:50:40;;;;;;;5.88;3.65;;;7.80;99.90;;;;;;5073425;28;20077;-68
2021/03/07 10:53:06;;;;;;;7.65;2.30;;;8.00;99.00;;;;;;5074180;28;20020;-68
2021/03/07 10:55:32;;;;;;;6.65;2.63;;;8.20;98.10;;;;;;5082168;28;20047;-68
2021/03/07 10:58:16;;;;;;;5.85;2.95;;;7.90;98.10;;;;;;5081265;28;20107;-68
2021/03/07 11:00:42;;;;;;;4.72;3.17;;;7.80;98.00;;;;;;5069761;28;20121;-68
2021/03/07 11:03:08;;;;;;;3.28;1.65;;;7.90;98.50;;;;;;5072916;28;20480;-68
2021/03/07 11:05:34;;;;;;;1.38;1.17;;;7.60;98.30;;;;;;5074343;28;20384;-68
2021/03/07 11:07:59;;;;;;;4.03;2.03;;;7.60;98.30;;;;;;5074319;28;20020;-69
2021/03/07 11:10:25;;;;;;;2.65;1.92;;;7.80;97.70;;;;;;5074100;28;20045;-69
2021/03/07 11:12:51;;;;;;;5.93;2.40;;;8.00;97.40;;;;;;5072983;28;20484;-68
2021/03/07 11:15:17;;;;;;;3.08;1.65;;;7.70;97.90;;;;;;5074125;28;20017;-68
2021/03/07 11:17:42;;;;;;;1.70;1.60;;;7.60;97.50;;;;;;5074023;28;20033;-69
2021/03/07 11:20:10;;;;;;;2.72;1.83;;;7.50;98.80;;;;;;5074055;28;20025;-68
2021/03/07 11:22:36;;;;;;;;;;;7.20;98.80;;;;;;5074408;28;20384;-69
2021/03/07 11:25:04;;;;;;;5.38;2.45;;;7.30;99.00;;;;;;5073698;28;19946;-68
2021/03/07 11:27:29;;;;;;;3.55;1.88;;;7.30;98.90;;;;;;5072663;28;20025;-69
2021/03/07 11:29:55;;;;;;;2.28;2.08;;;7.30;99.50;;;;;;5073775;28;20130;-69
2021/03/07 11:32:21;;;;;;;5.68;2.60;;;7.30;99.80;;;;;;5073799;28;20024;-68
2021/03/07 11:34:46;;;;;;;4.38;2.20;;;7.20;99.60;;;;;;5072864;28;20381;-67
2021/03/07 11:37:12;;;;;;;5.47;2.00;;;7.30;99.90;;;;;;5072452;28;20024;-69
2021/03/07 11:39:37;;;;;;;6.18;1.70;;;7.20;99.90;;;;;;5072467;28;20619;-68
2021/03/07 11:42:04;;;;;;;2.38;1.85;;;7.20;99.90;;;;;;5072208;28;20021;-67
2021/03/07 11:44:29;;;;;;;3.92;2.15;;;7.00;99.90;;;;;;5072279;28;20123;-67
2021/03/07 11:46:55;;;;;;;4.43;1.90;;;6.90;99.90;;;;;;5073639;28;20566;-68
2021/03/07 11:49:21;;;;;;;8.82;2.10;;;7.00;99.90;;;;;;5073562;28;20032;-67
2021/03/07 11:51:47;;;;;;;2.00;1.77;;;7.00;99.90;;;;;;5073457;28;20021;-68
2021/03/07 11:54:12;;;;;;;4.60;1.63;;;7.00;99.90;;;;;;5073641;28;20017;-67
2021/03/07 11:56:40;;;;;;;4.40;2.53;;;6.80;99.90;;;;;;5090511;28;20028;-68
2021/03/07 11:59:06;;;;;;;9.68;1.83;;;6.80;99.90;;;;;;5093622;28;20044;-67
2021/03/07 12:01:32;;;;;;;1.92;1.73;;;6.90;99.90;;;;;;5093658;28;20035;-68
2021/03/07 12:03:58;;;;;;;2.08;1.88;;;6.80;99.90;;;;;;5093561;28;20535;-68
2021/03/07 12:06:24;;;;;;;3.35;1.60;;;7.00;99.90;;;;;;5093555;28;20095;-68
2021/03/07 12:08:50;;;;;;;2.42;1.92;;;7.10;99.90;;;;;;5091915;28;20039;-68
2021/03/07 12:11:17;;;;;;;3.17;1.65;;;7.10;99.90;;;;;;5093440;28;20388;-68
2021/03/07 12:13:43;;;;;;;2.50;2.03;;;7.00;99.90;;;;;;5093767;28;20414;-67
2021/03/07 12:16:09;;;;;;;3.88;2.28;;;7.00;99.90;;;;;;5093410;28;20032;-69
2021/03/07 12:18:38;;;;;;;2.30;2.10;;;6.80;99.90;;;;;;5093324;28;20107;-69
2021/03/07 12:21:05;;;;;;;5.28;1.90;;;6.70;99.90;;;;;;5093213;28;20051;-68
2021/03/07 12:23:32;;;;;;;3.65;2.03;;;6.50;99.90;;;;;;5091957;28;20032;-69
2021/03/07 12:25:57;;;;;;;5.13;2.22;;;6.60;99.90;;;;;;5093251;28;20491;-69
2021/03/07 12:28:23;;;;;;;5.65;2.92;;;6.60;99.90;;;;;;5091785;28;20032;-69
2021/03/07 12:30:49;;;;;;;6.03;2.53;;;6.60;99.90;;;;;;5091812;28;20024;-67
2021/03/07 12:33:14;;;;;;;4.40;2.78;;;6.70;99.90;;;;;;5093070;28;20070;-68
2021/03/07 12:35:40;;;;;;;8.70;3.10;;;6.70;99.90;;;;;;5091963;28;20031;-68
2021/03/07 12:38:05;;;;;;;5.03;3.03;;;6.70;99.90;;;;;;5091756;28;20043;-68
2021/03/07 12:40:31;;;;;;;9.05;3.58;;;6.80;99.90;;;;;;5091690;28;20476;-68
2021/03/07 12:42:57;;;;;;;4.82;3.00;;;6.80;99.90;;;;;;5092928;28;20376;-69
2021/03/07 12:45:22;;;;;;;7.28;3.72;;;6.80;99.90;;;;;;5093055;28;20026;-69
2021/03/07 12:47:48;;;;;;;13.48;3.45;;;6.60;99.90;;;;;;5092924;28;20012;-69
2021/03/07 12:50:13;;;;;;;6.93;4.28;;;6.70;99.90;;;;;;5092908;28;20024;-69
2021/03/07 12:52:39;;;;;;;4.88;3.47;;;6.70;99.90;;;;;;5092953;28;20354;-69
2021/03/07 12:55:05;;;;;;;6.72;4.50;;;6.80;99.90;;;;;;5092684;28;20020;-68
2021/03/07 12:57:31;;;;;;;9.27;4.88;;;6.80;99.90;;;;;;5092790;28;20028;-68
2021/03/07 12:59:57;;;;;;;6.65;4.22;;;6.80;99.90;;;;;;5092767;28;20051;-69
2021/03/07 13:02:22;;;;;;;9.27;4.05;;;6.80;99.90;;;;;;5092597;28;20047;-67